sensor_id;sensor_type;location;lat;lon;timestamp;P1;durP1;ratioP1;P2;durP2;ratioP2
57778;SDS011;43608;49.486;9.640;2023-11-21T00:00:26;2.90;;;1.80;;
57778;SDS011;43608;49.486;9.640;2023-11-21T00:00:56;2.40;;;2.03;;
57778;SDS011;43608;49.486;9.640;2023-11-21T00:01:26;3.42;;;1.88;;
57778;SDS011;43608;49.486;9.640;2023-11-21T00:01:57;2.15;;;1.50;;
57778;SDS011;43608;49.486;9.640;2023-11-21T00:02:28;1.42;;;1.33;;
57778;SDS011;43608;49.486;9.640;2023-11-21T00:02:58;3.22;;;1.98;;
57778;SDS011;43608;49.486;9.640;2023-11-21T00:03:28;2.00;;;1.70;;
57778;SDS011;43608;49.486;9.640;2023-11-21T00:03:59;2.58;;;1.73;;
57778;SDS011;43608;49.486;9.640;2023-11-21T00:04:31;2.55;;;1.60;;
57778;SDS011;43608;49.486;9.640;2023-11-21T00:05:01;1.63;;;1.48;;
57778;SDS011;43608;49.486;9.640;2023-11-21T00:05:33;2.22;;;1.73;;
57778;SDS011;43608;49.486;9.640;2023-11-21T00:06:03;2.63;;;1.50;;
57778;SDS011;43608;49.486;9.640;2023-11-21T00:06:34;2.17;;;1.63;;
57778;SDS011;43608;49.486;9.640;2023-11-21T00:07:05;2.30;;;1.60;;
57778;SDS011;43608;49.486;9.640;2023-11-21T00:07:36;2.47;;;1.50;;
57778;SDS011;43608;49.486;9.640;2023-11-21T00:08:07;2.63;;;1.60;;
57778;SDS011;43608;49.486;9.640;2023-11-21T00:08:38;2.60;;;1.65;;
57778;SDS011;43608;49.486;9.640;2023-11-21T00:09:08;1.98;;;1.50;;
57778;SDS011;43608;49.486;9.640;2023-11-21T00:09:40;2.50;;;1.55;;
57778;SDS011;43608;49.486;9.640;2023-11-21T00:10:11;2.17;;;1.70;;
57778;SDS011;43608;49.486;9.640;2023-11-21T00:10:44;2.53;;;1.50;;
57778;SDS011;43608;49.486;9.640;2023-11-21T00:11:14;2.05;;;1.60;;
57778;SDS011;43608;49.486;9.640;2023-11-21T00:11:44;2.78;;;1.65;;
57778;SDS011;43608;49.486;9.640;2023-11-21T00:12:15;3.22;;;1.60;;
57778;SDS011;43608;49.486;9.640;2023-11-21T00:12:45;3.70;;;1.77;;
57778;SDS011;43608;49.486;9.640;2023-11-21T00:13:18;4.75;;;2.10;;
57778;SDS011;43608;49.486;9.640;2023-11-21T00:13:48;1.77;;;1.52;;
57778;SDS011;43608;49.486;9.640;2023-11-21T00:14:19;2.40;;;1.67;;
57778;SDS011;43608;49.486;9.640;2023-11-21T00:14:49;2.45;;;1.50;;
57778;SDS011;43608;49.486;9.640;2023-11-21T00:15:19;3.42;;;1.83;;
57778;SDS011;43608;49.486;9.640;2023-11-21T00:15:50;3.88;;;1.52;;
57778;SDS011;43608;49.486;9.640;2023-11-21T00:16:20;2.00;;;1.45;;
57778;SDS011;43608;49.486;9.640;2023-11-21T00:16:52;1.40;;;1.30;;
57778;SDS011;43608;49.486;9.640;2023-11-21T00:17:22;2.17;;;1.60;;
57778;SDS011;43608;49.486;9.640;2023-11-21T00:17:52;1.65;;;1.40;;
57778;SDS011;43608;49.486;9.640;2023-11-21T00:18:23;2.83;;;1.80;;
57778;SDS011;43608;49.486;9.640;2023-11-21T00:18:53;2.70;;;1.50;;
57778;SDS011;43608;49.486;9.640;2023-11-21T00:19:23;2.38;;;1.70;;
57778;SDS011;43608;49.486;9.640;2023-11-21T00:19:54;3.58;;;1.77;;
57778;SDS011;43608;49.486;9.640;2023-11-21T00:20:24;1.75;;;1.60;;
57778;SDS011;43608;49.486;9.640;2023-11-21T00:20:55;1.95;;;1.48;;
57778;SDS011;43608;49.486;9.640;2023-11-21T00:21:25;2.28;;;1.48;;
57778;SDS011;43608;49.486;9.640;2023-11-21T00:21:55;2.05;;;1.50;;
57778;SDS011;43608;49.486;9.640;2023-11-21T00:22:27;3.00;;;1.73;;
57778;SDS011;43608;49.486;9.640;2023-11-21T00:22:58;1.88;;;1.38;;
57778;SDS011;43608;49.486;9.640;2023-11-21T00:23:29;2.38;;;1.50;;
57778;SDS011;43608;49.486;9.640;2023-11-21T00:23:59;1.95;;;1.50;;
57778;SDS011;43608;49.486;9.640;2023-11-21T00:24:30;2.42;;;1.58;;
57778;SDS011;43608;49.486;9.640;2023-11-21T00:25:01;2.15;;;1.40;;
57778;SDS011;43608;49.486;9.640;2023-11-21T00:25:33;1.75;;;1.50;;
57778;SDS011;43608;49.486;9.640;2023-11-21T00:26:04;3.17;;;1.70;;
57778;SDS011;43608;49.486;9.640;2023-11-21T00:26:34;2.88;;;1.60;;
57778;SDS011;43608;49.486;9.640;2023-11-21T00:27:07;2.90;;;1.70;;
57778;SDS011;43608;49.486;9.640;2023-11-21T00:27:37;2.47;;;1.55;;
57778;SDS011;43608;49.486;9.640;2023-11-21T00:28:08;2.92;;;1.67;;
57778;SDS011;43608;49.486;9.640;2023-11-21T00:28:38;3.15;;;1.60;;
57778;SDS011;43608;49.486;9.640;2023-11-21T00:29:08;2.65;;;1.80;;
57778;SDS011;43608;49.486;9.640;2023-11-21T00:29:39;1.90;;;1.50;;
57778;SDS011;43608;49.486;9.640;2023-11-21T00:30:09;2.80;;;1.77;;
57778;SDS011;43608;49.486;9.640;2023-11-21T00:30:40;2.10;;;1.63;;
57778;SDS011;43608;49.486;9.640;2023-11-21T00:31:10;2.97;;;1.73;;
57778;SDS011;43608;49.486;9.640;2023-11-21T00:31:41;2.22;;;1.45;;
57778;SDS011;43608;49.486;9.640;2023-11-21T00:32:11;2.53;;;1.67;;
57778;SDS011;43608;49.486;9.640;2023-11-21T00:32:41;2.05;;;1.50;;
57778;SDS011;43608;49.486;9.640;2023-11-21T00:33:12;1.45;;;1.35;;
57778;SDS011;43608;49.486;9.640;2023-11-21T00:33:42;2.78;;;1.67;;
57778;SDS011;43608;49.486;9.640;2023-11-21T00:34:13;2.38;;;1.60;;
57778;SDS011;43608;49.486;9.640;2023-11-21T00:34:43;1.92;;;1.50;;
57778;SDS011;43608;49.486;9.640;2023-11-21T00:35:14;1.48;;;1.38;;
57778;SDS011;43608;49.486;9.640;2023-11-21T00:35:46;2.17;;;1.40;;
57778;SDS011;43608;49.486;9.640;2023-11-21T00:36:16;2.33;;;1.55;;
57778;SDS011;43608;49.486;9.640;2023-11-21T00:36:47;1.98;;;1.38;;
57778;SDS011;43608;49.486;9.640;2023-11-21T00:37:17;2.65;;;1.70;;
57778;SDS011;43608;49.486;9.640;2023-11-21T00:37:47;2.17;;;1.52;;
57778;SDS011;43608;49.486;9.640;2023-11-21T00:38:19;2.33;;;1.42;;
57778;SDS011;43608;49.486;9.640;2023-11-21T00:38:50;1.83;;;1.50;;
57778;SDS011;43608;49.486;9.640;2023-11-21T00:39:20;2.30;;;1.50;;
57778;SDS011;43608;49.486;9.640;2023-11-21T00:39:51;2.00;;;1.55;;
57778;SDS011;43608;49.486;9.640;2023-11-21T00:40:21;2.17;;;1.50;;
57778;SDS011;43608;49.486;9.640;2023-11-21T00:40:52;2.33;;;1.52;;
57778;SDS011;43608;49.486;9.640;2023-11-21T00:41:26;1.90;;;1.50;;
57778;SDS011;43608;49.486;9.640;2023-11-21T00:41:57;1.83;;;1.50;;
57778;SDS011;43608;49.486;9.640;2023-11-21T00:42:27;3.35;;;1.60;;
57778;SDS011;43608;49.486;9.640;2023-11-21T00:42:58;3.33;;;1.88;;
57778;SDS011;43608;49.486;9.640;2023-11-21T00:43:28;2.63;;;1.52;;
57778;SDS011;43608;49.486;9.640;2023-11-21T00:43:58;2.72;;;1.73;;
57778;SDS011;43608;49.486;9.640;2023-11-21T00:44:29;2.30;;;1.55;;
57778;SDS011;43608;49.486;9.640;2023-11-21T00:44:59;2.55;;;1.63;;
57778;SDS011;43608;49.486;9.640;2023-11-21T00:45:30;2.05;;;1.30;;
57778;SDS011;43608;49.486;9.640;2023-11-21T00:46:03;2.40;;;1.38;;
57778;SDS011;43608;49.486;9.640;2023-11-21T00:46:34;2.63;;;1.60;;
57778;SDS011;43608;49.486;9.640;2023-11-21T00:47:05;1.83;;;1.48;;
57778;SDS011;43608;49.486;9.640;2023-11-21T00:47:35;1.95;;;1.45;;
57778;SDS011;43608;49.486;9.640;2023-11-21T00:48:05;2.45;;;1.67;;
57778;SDS011;43608;49.486;9.640;2023-11-21T00:48:36;1.60;;;1.40;;
57778;SDS011;43608;49.486;9.640;2023-11-21T00:49:06;2.35;;;1.50;;
57778;SDS011;43608;49.486;9.640;2023-11-21T00:49:37;2.00;;;1.52;;
57778;SDS011;43608;49.486;9.640;2023-11-21T00:50:09;2.47;;;1.50;;
57778;SDS011;43608;49.486;9.640;2023-11-21T00:50:40;3.35;;;1.73;;
57778;SDS011;43608;49.486;9.640;2023-11-21T00:51:10;1.92;;;1.50;;
57778;SDS011;43608;49.486;9.640;2023-11-21T00:51:40;2.35;;;1.50;;
57778;SDS011;43608;49.486;9.640;2023-11-21T00:52:11;1.77;;;1.48;;
57778;SDS011;43608;49.486;9.640;2023-11-21T00:52:41;2.40;;;1.50;;
57778;SDS011;43608;49.486;9.640;2023-11-21T00:53:12;1.92;;;1.52;;
57778;SDS011;43608;49.486;9.640;2023-11-21T00:53:42;2.08;;;1.40;;
57778;SDS011;43608;49.486;9.640;2023-11-21T00:54:13;2.15;;;1.50;;
57778;SDS011;43608;49.486;9.640;2023-11-21T00:54:43;2.60;;;1.60;;
57778;SDS011;43608;49.486;9.640;2023-11-21T00:55:14;2.75;;;1.60;;
57778;SDS011;43608;49.486;9.640;2023-11-21T00:55:45;1.48;;;1.33;;
57778;SDS011;43608;49.486;9.640;2023-11-21T00:56:16;1.45;;;1.33;;
57778;SDS011;43608;49.486;9.640;2023-11-21T00:56:46;1.63;;;1.30;;
57778;SDS011;43608;49.486;9.640;2023-11-21T00:57:19;1.83;;;1.50;;
57778;SDS011;43608;49.486;9.640;2023-11-21T00:57:49;1.65;;;1.40;;
57778;SDS011;43608;49.486;9.640;2023-11-21T00:58:20;1.52;;;1.40;;
57778;SDS011;43608;49.486;9.640;2023-11-21T00:58:50;1.50;;;1.40;;
57778;SDS011;43608;49.486;9.640;2023-11-21T00:59:22;2.15;;;1.35;;
57778;SDS011;43608;49.486;9.640;2023-11-21T00:59:53;1.23;;;1.17;;
57778;SDS011;43608;49.486;9.640;2023-11-21T01:00:23;1.50;;;1.40;;
57778;SDS011;43608;49.486;9.640;2023-11-21T01:00:54;1.90;;;1.25;;
57778;SDS011;43608;49.486;9.640;2023-11-21T01:01:24;1.80;;;1.40;;
57778;SDS011;43608;49.486;9.640;2023-11-21T01:01:54;1.58;;;1.40;;
57778;SDS011;43608;49.486;9.640;2023-11-21T01:02:25;2.03;;;1.50;;
57778;SDS011;43608;49.486;9.640;2023-11-21T01:02:55;1.73;;;1.50;;
57778;SDS011;43608;49.486;9.640;2023-11-21T01:03:26;1.52;;;1.42;;
57778;SDS011;43608;49.486;9.640;2023-11-21T01:03:56;2.92;;;1.42;;
57778;SDS011;43608;49.486;9.640;2023-11-21T01:04:29;2.33;;;1.77;;
57778;SDS011;43608;49.486;9.640;2023-11-21T01:05:01;2.15;;;1.63;;
57778;SDS011;43608;49.486;9.640;2023-11-21T01:05:35;2.25;;;1.30;;
57778;SDS011;43608;49.486;9.640;2023-11-21T01:06:05;1.77;;;1.50;;
57778;SDS011;43608;49.486;9.640;2023-11-21T01:06:38;1.65;;;1.40;;
57778;SDS011;43608;49.486;9.640;2023-11-21T01:07:08;2.05;;;1.50;;
57778;SDS011;43608;49.486;9.640;2023-11-21T01:07:39;1.40;;;1.27;;
57778;SDS011;43608;49.486;9.640;2023-11-21T01:08:09;2.30;;;1.50;;
57778;SDS011;43608;49.486;9.640;2023-11-21T01:08:40;1.50;;;1.40;;
57778;SDS011;43608;49.486;9.640;2023-11-21T01:09:10;2.33;;;1.70;;
57778;SDS011;43608;49.486;9.640;2023-11-21T01:09:42;1.60;;;1.50;;
57778;SDS011;43608;49.486;9.640;2023-11-21T01:10:14;1.55;;;1.40;;
57778;SDS011;43608;49.486;9.640;2023-11-21T01:10:44;1.50;;;1.40;;
57778;SDS011;43608;49.486;9.640;2023-11-21T01:11:15;2.13;;;1.50;;
57778;SDS011;43608;49.486;9.640;2023-11-21T01:11:45;2.80;;;1.70;;
57778;SDS011;43608;49.486;9.640;2023-11-21T01:12:16;1.98;;;1.55;;
57778;SDS011;43608;49.486;9.640;2023-11-21T01:12:47;3.22;;;1.65;;
57778;SDS011;43608;49.486;9.640;2023-11-21T01:13:18;2.63;;;1.50;;
57778;SDS011;43608;49.486;9.640;2023-11-21T01:13:49;1.65;;;1.50;;
57778;SDS011;43608;49.486;9.640;2023-11-21T01:14:19;2.58;;;1.55;;
57778;SDS011;43608;49.486;9.640;2023-11-21T01:14:50;2.55;;;1.55;;
57778;SDS011;43608;49.486;9.640;2023-11-21T01:15:20;2.35;;;1.42;;
57778;SDS011;43608;49.486;9.640;2023-11-21T01:15:54;1.60;;;1.50;;
57778;SDS011;43608;49.486;9.640;2023-11-21T01:16:24;1.73;;;1.50;;
57778;SDS011;43608;49.486;9.640;2023-11-21T01:16:55;1.52;;;1.42;;
57778;SDS011;43608;49.486;9.640;2023-11-21T01:17:25;2.90;;;1.60;;
57778;SDS011;43608;49.486;9.640;2023-11-21T01:17:55;1.75;;;1.50;;
57778;SDS011;43608;49.486;9.640;2023-11-21T01:18:26;1.83;;;1.50;;
57778;SDS011;43608;49.486;9.640;2023-11-21T01:18:56;1.95;;;1.40;;
57778;SDS011;43608;49.486;9.640;2023-11-21T01:19:26;2.50;;;1.50;;
57778;SDS011;43608;49.486;9.640;2023-11-21T01:19:58;2.05;;;1.40;;
57778;SDS011;43608;49.486;9.640;2023-11-21T01:20:31;1.40;;;1.30;;
57778;SDS011;43608;49.486;9.640;2023-11-21T01:21:02;1.48;;;1.33;;
57778;SDS011;43608;49.486;9.640;2023-11-21T01:21:33;1.95;;;1.60;;
57778;SDS011;43608;49.486;9.640;2023-11-21T01:22:03;1.58;;;1.40;;
57778;SDS011;43608;49.486;9.640;2023-11-21T01:22:34;2.13;;;1.35;;
57778;SDS011;43608;49.486;9.640;2023-11-21T01:23:04;2.30;;;1.40;;
57778;SDS011;43608;49.486;9.640;2023-11-21T01:23:34;2.05;;;1.58;;
57778;SDS011;43608;49.486;9.640;2023-11-21T01:24:05;1.67;;;1.42;;
57778;SDS011;43608;49.486;9.640;2023-11-21T01:24:37;1.58;;;1.30;;
57778;SDS011;43608;49.486;9.640;2023-11-21T01:25:07;1.80;;;1.50;;
57778;SDS011;43608;49.486;9.640;2023-11-21T01:25:38;1.52;;;1.30;;
57778;SDS011;43608;49.486;9.640;2023-11-21T01:26:08;1.65;;;1.45;;
57778;SDS011;43608;49.486;9.640;2023-11-21T01:26:38;2.33;;;1.50;;
57778;SDS011;43608;49.486;9.640;2023-11-21T01:27:09;1.88;;;1.52;;
57778;SDS011;43608;49.486;9.640;2023-11-21T01:27:39;2.45;;;1.45;;
57778;SDS011;43608;49.486;9.640;2023-11-21T01:28:09;1.55;;;1.30;;
57778;SDS011;43608;49.486;9.640;2023-11-21T01:28:40;2.08;;;1.48;;
57778;SDS011;43608;49.486;9.640;2023-11-21T01:29:10;1.40;;;1.30;;
57778;SDS011;43608;49.486;9.640;2023-11-21T01:29:40;1.33;;;1.27;;
57778;SDS011;43608;49.486;9.640;2023-11-21T01:30:11;1.60;;;1.50;;
57778;SDS011;43608;49.486;9.640;2023-11-21T01:30:41;1.70;;;1.45;;
57778;SDS011;43608;49.486;9.640;2023-11-21T01:31:11;1.85;;;1.35;;
57778;SDS011;43608;49.486;9.640;2023-11-21T01:31:42;1.70;;;1.40;;
57778;SDS011;43608;49.486;9.640;2023-11-21T01:32:13;2.13;;;1.40;;
57778;SDS011;43608;49.486;9.640;2023-11-21T01:32:43;1.60;;;1.50;;
57778;SDS011;43608;49.486;9.640;2023-11-21T01:33:14;2.05;;;1.50;;
57778;SDS011;43608;49.486;9.640;2023-11-21T01:33:45;2.20;;;1.50;;
57778;SDS011;43608;49.486;9.640;2023-11-21T01:34:16;2.05;;;1.50;;
57778;SDS011;43608;49.486;9.640;2023-11-21T01:34:47;1.52;;;1.40;;
57778;SDS011;43608;49.486;9.640;2023-11-21T01:35:18;1.48;;;1.38;;
57778;SDS011;43608;49.486;9.640;2023-11-21T01:35:48;1.77;;;1.50;;
57778;SDS011;43608;49.486;9.640;2023-11-21T01:36:18;1.67;;;1.50;;
57778;SDS011;43608;49.486;9.640;2023-11-21T01:36:49;1.63;;;1.40;;
57778;SDS011;43608;49.486;9.640;2023-11-21T01:37:19;1.40;;;1.30;;
57778;SDS011;43608;49.486;9.640;2023-11-21T01:37:49;1.65;;;1.40;;
57778;SDS011;43608;49.486;9.640;2023-11-21T01:38:20;1.40;;;1.27;;
57778;SDS011;43608;49.486;9.640;2023-11-21T01:38:51;2.33;;;1.60;;
57778;SDS011;43608;49.486;9.640;2023-11-21T01:39:21;1.73;;;1.40;;
57778;SDS011;43608;49.486;9.640;2023-11-21T01:39:54;1.80;;;1.50;;
57778;SDS011;43608;49.486;9.640;2023-11-21T01:40:29;1.67;;;1.45;;
57778;SDS011;43608;49.486;9.640;2023-11-21T01:41:00;1.70;;;1.50;;
57778;SDS011;43608;49.486;9.640;2023-11-21T01:41:30;2.05;;;1.60;;
57778;SDS011;43608;49.486;9.640;2023-11-21T01:42:01;1.60;;;1.50;;
57778;SDS011;43608;49.486;9.640;2023-11-21T01:42:31;1.50;;;1.23;;
57778;SDS011;43608;49.486;9.640;2023-11-21T01:43:01;2.05;;;1.60;;
57778;SDS011;43608;49.486;9.640;2023-11-21T01:43:34;1.58;;;1.40;;
57778;SDS011;43608;49.486;9.640;2023-11-21T01:44:05;2.00;;;1.50;;
57778;SDS011;43608;49.486;9.640;2023-11-21T01:44:37;2.45;;;1.58;;
57778;SDS011;43608;49.486;9.640;2023-11-21T01:45:08;2.53;;;1.65;;
57778;SDS011;43608;49.486;9.640;2023-11-21T01:45:39;2.05;;;1.60;;
57778;SDS011;43608;49.486;9.640;2023-11-21T01:46:10;1.92;;;1.38;;
57778;SDS011;43608;49.486;9.640;2023-11-21T01:46:40;2.05;;;1.60;;
57778;SDS011;43608;49.486;9.640;2023-11-21T01:47:11;1.40;;;1.30;;
57778;SDS011;43608;49.486;9.640;2023-11-21T01:47:43;1.77;;;1.40;;
57778;SDS011;43608;49.486;9.640;2023-11-21T01:48:15;2.17;;;1.58;;
57778;SDS011;43608;49.486;9.640;2023-11-21T01:48:46;1.58;;;1.30;;
57778;SDS011;43608;49.486;9.640;2023-11-21T01:49:18;2.10;;;1.50;;
57778;SDS011;43608;49.486;9.640;2023-11-21T01:49:50;1.88;;;1.50;;
57778;SDS011;43608;49.486;9.640;2023-11-21T01:50:21;1.63;;;1.45;;
57778;SDS011;43608;49.486;9.640;2023-11-21T01:50:52;1.60;;;1.33;;
57778;SDS011;43608;49.486;9.640;2023-11-21T01:51:23;1.65;;;1.35;;
57778;SDS011;43608;49.486;9.640;2023-11-21T01:51:53;1.92;;;1.50;;
57778;SDS011;43608;49.486;9.640;2023-11-21T01:52:23;1.85;;;1.30;;
57778;SDS011;43608;49.486;9.640;2023-11-21T01:52:54;2.05;;;1.38;;
57778;SDS011;43608;49.486;9.640;2023-11-21T01:53:25;1.95;;;1.42;;
57778;SDS011;43608;49.486;9.640;2023-11-21T01:53:56;1.50;;;1.40;;
57778;SDS011;43608;49.486;9.640;2023-11-21T01:54:27;1.40;;;1.30;;
57778;SDS011;43608;49.486;9.640;2023-11-21T01:55:01;1.40;;;1.30;;
57778;SDS011;43608;49.486;9.640;2023-11-21T01:55:34;1.50;;;1.40;;
57778;SDS011;43608;49.486;9.640;2023-11-21T01:56:05;1.35;;;1.25;;
57778;SDS011;43608;49.486;9.640;2023-11-21T01:56:38;1.35;;;1.25;;
57778;SDS011;43608;49.486;9.640;2023-11-21T01:57:09;2.15;;;1.58;;
57778;SDS011;43608;49.486;9.640;2023-11-21T01:57:39;1.30;;;1.20;;
57778;SDS011;43608;49.486;9.640;2023-11-21T01:58:10;1.25;;;1.15;;
57778;SDS011;43608;49.486;9.640;2023-11-21T01:58:43;1.40;;;1.30;;
57778;SDS011;43608;49.486;9.640;2023-11-21T01:59:14;1.42;;;1.33;;
57778;SDS011;43608;49.486;9.640;2023-11-21T01:59:49;2.20;;;1.45;;
57778;SDS011;43608;49.486;9.640;2023-11-21T02:00:24;2.28;;;1.40;;
57778;SDS011;43608;49.486;9.640;2023-11-21T02:00:55;1.30;;;1.25;;
57778;SDS011;43608;49.486;9.640;2023-11-21T02:01:25;1.52;;;1.40;;
57778;SDS011;43608;49.486;9.640;2023-11-21T02:01:56;2.45;;;1.33;;
57778;SDS011;43608;49.486;9.640;2023-11-21T02:02:26;1.50;;;1.38;;
57778;SDS011;43608;49.486;9.640;2023-11-21T02:02:57;1.40;;;1.20;;
57778;SDS011;43608;49.486;9.640;2023-11-21T02:03:29;2.28;;;1.50;;
57778;SDS011;43608;49.486;9.640;2023-11-21T02:03:59;1.30;;;1.20;;
57778;SDS011;43608;49.486;9.640;2023-11-21T02:04:30;1.58;;;1.40;;
57778;SDS011;43608;49.486;9.640;2023-11-21T02:05:01;1.52;;;1.20;;
57778;SDS011;43608;49.486;9.640;2023-11-21T02:05:34;1.20;;;1.10;;
57778;SDS011;43608;49.486;9.640;2023-11-21T02:06:05;1.13;;;1.10;;
57778;SDS011;43608;49.486;9.640;2023-11-21T02:06:37;1.10;;;1.10;;
57778;SDS011;43608;49.486;9.640;2023-11-21T02:07:07;1.45;;;1.35;;
57778;SDS011;43608;49.486;9.640;2023-11-21T02:07:38;1.42;;;1.20;;
57778;SDS011;43608;49.486;9.640;2023-11-21T02:08:09;1.40;;;1.30;;
57778;SDS011;43608;49.486;9.640;2023-11-21T02:08:40;1.42;;;1.15;;
57778;SDS011;43608;49.486;9.640;2023-11-21T02:09:12;1.50;;;1.40;;
57778;SDS011;43608;49.486;9.640;2023-11-21T02:09:45;1.40;;;1.30;;
57778;SDS011;43608;49.486;9.640;2023-11-21T02:10:15;1.20;;;1.10;;
57778;SDS011;43608;49.486;9.640;2023-11-21T02:10:46;1.45;;;1.30;;
57778;SDS011;43608;49.486;9.640;2023-11-21T02:11:17;1.30;;;1.20;;
57778;SDS011;43608;49.486;9.640;2023-11-21T02:11:49;1.63;;;1.30;;
57778;SDS011;43608;49.486;9.640;2023-11-21T02:12:19;1.42;;;1.30;;
57778;SDS011;43608;49.486;9.640;2023-11-21T02:12:50;1.77;;;1.27;;
57778;SDS011;43608;49.486;9.640;2023-11-21T02:13:20;1.45;;;1.33;;
57778;SDS011;43608;49.486;9.640;2023-11-21T02:13:50;1.50;;;1.30;;
57778;SDS011;43608;49.486;9.640;2023-11-21T02:14:24;1.65;;;1.27;;
57778;SDS011;43608;49.486;9.640;2023-11-21T02:14:57;2.35;;;1.30;;
57778;SDS011;43608;49.486;9.640;2023-11-21T02:15:28;1.58;;;1.30;;
57778;SDS011;43608;49.486;9.640;2023-11-21T02:15:59;1.17;;;1.08;;
57778;SDS011;43608;49.486;9.640;2023-11-21T02:16:29;1.30;;;1.20;;
57778;SDS011;43608;49.486;9.640;2023-11-21T02:17:01;1.40;;;1.30;;
57778;SDS011;43608;49.486;9.640;2023-11-21T02:17:33;1.40;;;1.20;;
57778;SDS011;43608;49.486;9.640;2023-11-21T02:18:03;1.15;;;1.10;;
57778;SDS011;43608;49.486;9.640;2023-11-21T02:18:35;1.15;;;1.15;;
57778;SDS011;43608;49.486;9.640;2023-11-21T02:19:07;1.35;;;1.10;;
57778;SDS011;43608;49.486;9.640;2023-11-21T02:19:39;1.20;;;1.10;;
57778;SDS011;43608;49.486;9.640;2023-11-21T02:20:11;1.20;;;1.20;;
57778;SDS011;43608;49.486;9.640;2023-11-21T02:20:45;1.30;;;1.20;;
57778;SDS011;43608;49.486;9.640;2023-11-21T02:21:17;1.33;;;1.23;;
57778;SDS011;43608;49.486;9.640;2023-11-21T02:21:49;1.90;;;1.30;;
57778;SDS011;43608;49.486;9.640;2023-11-21T02:22:21;1.40;;;1.30;;
57778;SDS011;43608;49.486;9.640;2023-11-21T02:22:53;1.10;;;1.02;;
57778;SDS011;43608;49.486;9.640;2023-11-21T02:23:30;1.23;;;1.13;;
57778;SDS011;43608;49.486;9.640;2023-11-21T02:24:00;1.40;;;1.30;;
57778;SDS011;43608;49.486;9.640;2023-11-21T02:24:31;1.40;;;1.30;;
57778;SDS011;43608;49.486;9.640;2023-11-21T02:25:01;1.20;;;1.10;;
57778;SDS011;43608;49.486;9.640;2023-11-21T02:25:33;1.17;;;1.08;;
57778;SDS011;43608;49.486;9.640;2023-11-21T02:26:03;1.40;;;1.30;;
57778;SDS011;43608;49.486;9.640;2023-11-21T02:26:34;1.27;;;1.20;;
57778;SDS011;43608;49.486;9.640;2023-11-21T02:27:05;1.17;;;1.10;;
57778;SDS011;43608;49.486;9.640;2023-11-21T02:27:36;1.23;;;1.13;;
57778;SDS011;43608;49.486;9.640;2023-11-21T02:28:07;1.40;;;1.30;;
57778;SDS011;43608;49.486;9.640;2023-11-21T02:28:38;1.33;;;1.13;;
57778;SDS011;43608;49.486;9.640;2023-11-21T02:29:08;1.52;;;1.20;;
57778;SDS011;43608;49.486;9.640;2023-11-21T02:29:42;1.92;;;1.10;;
57778;SDS011;43608;49.486;9.640;2023-11-21T02:30:13;1.77;;;1.20;;
57778;SDS011;43608;49.486;9.640;2023-11-21T02:30:43;1.35;;;1.17;;
57778;SDS011;43608;49.486;9.640;2023-11-21T02:31:14;1.73;;;1.38;;
57778;SDS011;43608;49.486;9.640;2023-11-21T02:31:45;1.73;;;1.33;;
57778;SDS011;43608;49.486;9.640;2023-11-21T02:32:17;1.70;;;1.30;;
57778;SDS011;43608;49.486;9.640;2023-11-21T02:32:49;2.30;;;1.60;;
57778;SDS011;43608;49.486;9.640;2023-11-21T02:33:19;2.17;;;1.58;;
57778;SDS011;43608;49.486;9.640;2023-11-21T02:33:50;2.28;;;1.40;;
57778;SDS011;43608;49.486;9.640;2023-11-21T02:34:21;2.08;;;1.33;;
57778;SDS011;43608;49.486;9.640;2023-11-21T02:34:52;2.28;;;1.50;;
57778;SDS011;43608;49.486;9.640;2023-11-21T02:35:25;1.95;;;1.40;;
57778;SDS011;43608;49.486;9.640;2023-11-21T02:35:56;2.15;;;1.40;;
57778;SDS011;43608;49.486;9.640;2023-11-21T02:36:27;1.52;;;1.25;;
57778;SDS011;43608;49.486;9.640;2023-11-21T02:36:57;1.90;;;1.50;;
57778;SDS011;43608;49.486;9.640;2023-11-21T02:37:27;1.70;;;1.27;;
57778;SDS011;43608;49.486;9.640;2023-11-21T02:37:58;1.35;;;1.20;;
57778;SDS011;43608;49.486;9.640;2023-11-21T02:38:28;1.27;;;1.17;;
57778;SDS011;43608;49.486;9.640;2023-11-21T02:38:58;2.15;;;1.30;;
57778;SDS011;43608;49.486;9.640;2023-11-21T02:39:29;1.50;;;1.30;;
57778;SDS011;43608;49.486;9.640;2023-11-21T02:39:59;1.55;;;1.38;;
57778;SDS011;43608;49.486;9.640;2023-11-21T02:40:29;1.95;;;1.40;;
57778;SDS011;43608;49.486;9.640;2023-11-21T02:41:00;1.90;;;1.23;;
57778;SDS011;43608;49.486;9.640;2023-11-21T02:41:30;1.80;;;1.30;;
57778;SDS011;43608;49.486;9.640;2023-11-21T02:42:00;1.35;;;1.25;;
57778;SDS011;43608;49.486;9.640;2023-11-21T02:42:31;0.98;;;0.90;;
57778;SDS011;43608;49.486;9.640;2023-11-21T02:43:01;1.60;;;1.40;;
57778;SDS011;43608;49.486;9.640;2023-11-21T02:43:32;1.80;;;1.30;;
57778;SDS011;43608;49.486;9.640;2023-11-21T02:44:02;1.67;;;1.58;;
57778;SDS011;43608;49.486;9.640;2023-11-21T02:44:33;1.55;;;1.30;;
57778;SDS011;43608;49.486;9.640;2023-11-21T02:45:05;1.60;;;1.20;;
57778;SDS011;43608;49.486;9.640;2023-11-21T02:45:36;1.25;;;1.13;;
57778;SDS011;43608;49.486;9.640;2023-11-21T02:46:08;1.30;;;1.20;;
57778;SDS011;43608;49.486;9.640;2023-11-21T02:46:38;1.23;;;1.13;;
57778;SDS011;43608;49.486;9.640;2023-11-21T02:47:10;1.20;;;1.10;;
57778;SDS011;43608;49.486;9.640;2023-11-21T02:47:40;1.55;;;1.40;;
57778;SDS011;43608;49.486;9.640;2023-11-21T02:48:10;1.10;;;1.10;;
57778;SDS011;43608;49.486;9.640;2023-11-21T02:48:41;1.63;;;1.30;;
57778;SDS011;43608;49.486;9.640;2023-11-21T02:49:11;1.10;;;1.08;;
57778;SDS011;43608;49.486;9.640;2023-11-21T02:49:42;1.95;;;1.20;;
57778;SDS011;43608;49.486;9.640;2023-11-21T02:50:12;1.33;;;1.23;;
57778;SDS011;43608;49.486;9.640;2023-11-21T02:50:43;1.30;;;1.20;;
57778;SDS011;43608;49.486;9.640;2023-11-21T02:51:13;1.33;;;1.23;;
57778;SDS011;43608;49.486;9.640;2023-11-21T02:51:45;1.48;;;1.10;;
57778;SDS011;43608;49.486;9.640;2023-11-21T02:52:16;1.33;;;1.23;;
57778;SDS011;43608;49.486;9.640;2023-11-21T02:52:46;1.13;;;1.00;;
57778;SDS011;43608;49.486;9.640;2023-11-21T02:53:16;1.42;;;1.20;;
57778;SDS011;43608;49.486;9.640;2023-11-21T02:53:47;1.10;;;1.00;;
57778;SDS011;43608;49.486;9.640;2023-11-21T02:54:17;1.10;;;1.10;;
57778;SDS011;43608;49.486;9.640;2023-11-21T02:54:47;1.40;;;1.30;;
57778;SDS011;43608;49.486;9.640;2023-11-21T02:55:18;1.15;;;1.10;;
57778;SDS011;43608;49.486;9.640;2023-11-21T02:55:48;1.40;;;1.20;;
57778;SDS011;43608;49.486;9.640;2023-11-21T02:56:18;1.60;;;1.33;;
57778;SDS011;43608;49.486;9.640;2023-11-21T02:56:49;1.17;;;1.08;;
57778;SDS011;43608;49.486;9.640;2023-11-21T02:57:19;0.80;;;0.80;;
57778;SDS011;43608;49.486;9.640;2023-11-21T02:57:50;1.13;;;1.13;;
57778;SDS011;43608;49.486;9.640;2023-11-21T02:58:20;1.20;;;1.10;;
57778;SDS011;43608;49.486;9.640;2023-11-21T02:58:51;1.20;;;1.10;;
57778;SDS011;43608;49.486;9.640;2023-11-21T02:59:21;1.00;;;1.00;;
57778;SDS011;43608;49.486;9.640;2023-11-21T02:59:52;1.20;;;1.10;;
57778;SDS011;43608;49.486;9.640;2023-11-21T03:00:22;1.42;;;1.33;;
57778;SDS011;43608;49.486;9.640;2023-11-21T03:00:54;1.13;;;1.02;;
57778;SDS011;43608;49.486;9.640;2023-11-21T03:01:24;1.25;;;1.23;;
57778;SDS011;43608;49.486;9.640;2023-11-21T03:01:55;1.20;;;1.10;;
57778;SDS011;43608;49.486;9.640;2023-11-21T03:02:26;1.65;;;0.90;;
57778;SDS011;43608;49.486;9.640;2023-11-21T03:02:57;1.00;;;1.00;;
57778;SDS011;43608;49.486;9.640;2023-11-21T03:03:28;1.00;;;1.00;;
57778;SDS011;43608;49.486;9.640;2023-11-21T03:03:58;1.00;;;1.00;;
57778;SDS011;43608;49.486;9.640;2023-11-21T03:04:29;1.77;;;1.30;;
57778;SDS011;43608;49.486;9.640;2023-11-21T03:04:59;0.90;;;0.90;;
57778;SDS011;43608;49.486;9.640;2023-11-21T03:05:30;1.20;;;1.10;;
57778;SDS011;43608;49.486;9.640;2023-11-21T03:06:01;0.95;;;0.95;;
57778;SDS011;43608;49.486;9.640;2023-11-21T03:06:31;1.30;;;1.20;;